Time;durP1;ratioP1;P1;durP2;ratioP2;P2;SDS_P1;SDS_P2;PMS_P1;PMS_P2;Temp;Humidity;BMP_temperature;BMP_pressure;BME280_temperature;BME280_humidity;BME280_pressure;Samples;Min_cycle;Max_cycle;Signal;HPM_P1;HPM_P2
2022/04/04 00:00:07;;;;;;;5.90;2.90;;;;;;;;;;5079788;28;20554;-83
2022/04/04 00:02:33;;;;;;;5.82;3.58;;;;;;;;;;5078302;28;20054;-83
2022/04/04 00:05:01;;;;;;;5.88;3.25;;;;;;;;;;5078237;28;20036;-84
2022/04/04 00:07:27;;;;;;;5.38;3.53;;;;;;;;;;5080498;28;20044;-84
2022/04/04 00:09:53;;;;;;;6.65;3.53;;;;;;;;;;5079607;28;20032;-84
2022/04/04 00:12:20;;;;;;;5.95;3.67;;;;;;;;;;5079674;28;20097;-85
2022/04/04 00:14:46;;;;;;;8.68;3.40;;;;;;;;;;5078388;28;20133;-85
2022/04/04 00:17:12;;;;;;;5.53;3.42;;;;;;;;;;5078797;28;20507;-85
2022/04/04 00:19:42;;;;;;;5.82;2.60;;;;;;;;;;5078997;28;20036;-85
2022/04/04 00:22:08;;;;;;;5.93;2.75;;;;;;;;;;5087593;28;20036;-83
2022/04/04 00:24:36;;;;;;;7.57;3.70;;;;;;;;;;5096623;28;20062;-83
2022/04/04 00:27:02;;;;;;;5.45;3.30;;;;;;;;;;5090670;28;20040;-85
2022/04/04 00:29:28;;;;;;;7.05;3.58;;;;;;;;;;5051120;28;20075;-85
2022/04/04 00:31:55;;;;;;;5.57;3.40;;;;;;;;;;5080289;28;20044;-84
2022/04/04 00:34:21;;;;;;;5.65;3.50;;;;;;;;;;5078750;28;20036;-85
2022/04/04 00:36:47;;;;;;;5.65;3.40;;;;;;;;;;5077821;28;20980;-85
2022/04/04 00:39:19;;;;;;;7.38;3.38;;;;;;;;;;5080216;28;20043;-82
2022/04/04 00:41:46;;;;;;;5.05;3.67;;;;;;;;;;5074336;28;20044;-84
2022/04/04 00:44:12;;;;;;;3.30;2.53;;;;;;;;;;5077861;28;20056;-83
2022/04/04 00:46:42;;;;;;;7.18;3.47;;;;;;;;;;5076778;28;20036;-84
2022/04/04 00:49:09;;;;;;;5.72;3.40;;;;;;;;;;5079536;28;20066;-85
2022/04/04 00:51:35;;;;;;;3.55;3.25;;;;;;;;;;5076751;28;20755;-83
2022/04/04 00:54:03;;;;;;;8.30;4.00;;;;;;;;;;5078100;28;20427;-84
2022/04/04 00:56:31;;;;;;;5.68;3.78;;;;;;;;;;5073700;28;20052;-84
2022/04/04 00:58:59;;;;;;;4.80;3.50;;;;;;;;;;5076353;28;20066;-84
2022/04/04 01:01:25;;;;;;;4.55;3.35;;;;;;;;;;5077030;28;20764;-81
2022/04/04 01:03:51;;;;;;;4.63;3.17;;;;;;;;;;5071222;28;20037;-82
2022/04/04 01:06:18;;;;;;;3.78;2.83;;;;;;;;;;5080141;28;20043;-86
2022/04/04 01:09:02;;;;;;;4.95;2.80;;;;;;;;;;5076288;28;20040;-86
2022/04/04 01:11:29;;;;;;;;;;;;;;;;;;5079055;28;20051;-85
2022/04/04 01:13:56;;;;;;;5.75;3.08;;;;;;;;;;5077670;28;19924;-83
2022/04/04 01:16:22;;;;;;;4.72;4.03;;;;;;;;;;5076521;28;20039;-80
2022/04/04 01:18:48;;;;;;;5.03;3.85;;;;;;;;;;5080358;28;20041;-82
2022/04/04 01:21:18;;;;;;;8.32;3.95;;;;;;;;;;5074924;28;20399;-85
2022/04/04 01:23:44;;;;;;;9.02;4.28;;;;;;;;;;5078960;28;20459;-83
2022/04/04 01:26:20;;;;;;;7.10;3.58;;;;;;;;;;5071724;28;20525;-83
2022/04/04 01:28:46;;;;;;;7.30;4.07;;;;;;;;;;5079778;28;20040;-83
2022/04/04 01:31:12;;;;;;;7.80;4.45;;;;;;;;;;5069572;28;20044;-83
2022/04/04 01:33:39;;;;;;;5.72;4.10;;;;;;;;;;5074537;28;20032;-82
2022/04/04 01:36:05;;;;;;;8.43;4.53;;;;;;;;;;5076633;28;20038;-86
2022/04/04 01:38:31;;;;;;;7.78;4.13;;;;;;;;;;5079346;28;20841;-84
2022/04/04 01:41:16;;;;;;;8.90;5.78;;;;;;;;;;5077747;28;20129;-84
2022/04/04 01:43:42;;;;;;;10.02;5.32;;;;;;;;;;5078742;28;20131;-84
2022/04/04 01:46:24;;;;;;;9.18;5.45;;;;;;;;;;5086863;28;20070;-84
2022/04/04 01:48:50;;;;;;;6.65;5.32;;;;;;;;;;5088949;28;20395;-82
2022/04/04 01:51:16;;;;;;;9.02;5.53;;;;;;;;;;5093328;28;20040;-84
2022/04/04 01:53:42;;;;;;;10.73;7.32;;;;;;;;;;5084789;28;20044;-82
2022/04/04 01:56:09;;;;;;;9.82;7.05;;;;;;;;;;5082454;28;20040;-85
2022/04/04 01:58:35;;;;;;;11.30;7.15;;;;;;;;;;5082320;28;20032;-82
2022/04/04 02:01:03;;;;;;;10.38;7.53;;;;;;;;;;5075659;28;20033;-85
2022/04/04 02:03:31;;;;;;;10.48;6.93;;;;;;;;;;5076979;28;20063;-83
2022/04/04 02:05:59;;;;;;;10.77;6.18;;;;;;;;;;5073388;28;20087;-83
2022/04/04 02:08:25;;;;;;;11.05;6.75;;;;;;;;;;5075663;28;20159;-84
2022/04/04 02:10:51;;;;;;;15.07;8.98;;;;;;;;;;5075920;28;20059;-83
2022/04/04 02:13:17;;;;;;;13.68;8.48;;;;;;;;;;5081273;28;20043;-82
2022/04/04 02:15:43;;;;;;;15.18;9.75;;;;;;;;;;5078743;28;20779;-82
2022/04/04 02:18:09;;;;;;;15.13;11.27;;;;;;;;;;5082638;28;20048;-81
2022/04/04 02:20:36;;;;;;;12.85;8.27;;;;;;;;;;5081617;28;20409;-82
2022/04/04 02:23:03;;;;;;;14.18;9.93;;;;;;;;;;5082967;28;20048;-82
2022/04/04 02:25:29;;;;;;;14.05;9.65;;;;;;;;;;5083217;28;20055;-82
2022/04/04 02:27:55;;;;;;;16.38;11.40;;;;;;;;;;5088667;28;20036;-81
2022/04/04 02:30:21;;;;;;;14.35;9.82;;;;;;;;;;5099925;28;20040;-85
2022/04/04 02:32:47;;;;;;;18.42;10.25;;;;;;;;;;5100073;28;20068;-84
2022/04/04 02:35:13;;;;;;;14.85;9.07;;;;;;;;;;5064000;28;20040;-83
2022/04/04 02:37:40;;;;;;;18.77;10.98;;;;;;;;;;5084599;28;20047;-84
2022/04/04 02:40:06;;;;;;;15.50;10.15;;;;;;;;;;5080145;28;20094;-81
2022/04/04 02:42:32;;;;;;;16.13;11.95;;;;;;;;;;5082261;28;20127;-83
2022/04/04 02:44:58;;;;;;;13.88;11.55;;;;;;;;;;5079582;28;20052;-82
2022/04/04 02:47:50;;;;;;;13.13;9.15;;;;;;;;;;5059209;28;20056;-81
2022/04/04 02:50:16;;;;;;;13.43;9.45;;;;;;;;;;5078187;28;20032;-81
2022/04/04 02:52:45;;;;;;;16.75;11.80;;;;;;;;;;5081781;28;20044;-82
2022/04/04 02:58:03;;;;;;;13.65;10.40;;;;;;;;;;5079876;28;20079;-82
2022/04/04 03:00:32;;;;;;;11.95;8.25;;;;;;;;;;5079373;28;20040;-80
2022/04/04 03:02:58;;;;;;;21.58;12.18;;;;;;;;;;5079854;28;20071;-79
2022/04/04 03:05:25;;;;;;;17.13;11.20;;;;;;;;;;5080868;28;20048;-81
2022/04/04 03:07:58;;;;;;;13.70;9.75;;;;;;;;;;5081829;28;20047;-82
2022/04/04 03:10:24;;;;;;;21.50;12.55;;;;;;;;;;5079923;28;20126;-81
2022/04/04 03:13:05;;;;;;;15.38;11.73;;;;;;;;;;5083245;28;20537;-81
2022/04/04 03:15:36;;;;;;;19.80;12.95;;;;;;;;;;5082419;28;20048;-81
2022/04/04 03:18:03;;;;;;;15.70;11.30;;;;;;;;;;5082285;28;20471;-81
2022/04/04 03:20:30;;;;;;;16.20;11.40;;;;;;;;;;5084337;28;20083;-82
2022/04/04 03:22:57;;;;;;;15.02;9.20;;;;;;;;;;5081097;28;20513;-80
2022/04/04 03:25:23;;;;;;;17.10;11.18;;;;;;;;;;5075342;28;20104;-81
2022/04/04 03:27:50;;;;;;;16.60;12.90;;;;;;;;;;5081839;28;20101;-81
2022/04/04 03:30:18;;;;;;;17.40;12.65;;;;;;;;;;5084088;28;20028;-83
2022/04/04 03:32:49;;;;;;;25.25;13.13;;;;;;;;;;5094819;28;20036;-83
2022/04/04 03:35:15;;;;;;;20.98;13.98;;;;;;;;;;5080281;28;20054;-84
2022/04/04 03:37:42;;;;;;;16.10;11.50;;;;;;;;;;5081462;28;20050;-83
2022/04/04 03:40:12;;;;;;;21.63;15.40;;;;;;;;;;5078366;28;20097;-83
2022/04/04 03:42:38;;;;;;;23.77;14.50;;;;;;;;;;5080225;28;20522;-83
2022/04/04 03:45:05;;;;;;;19.35;14.98;;;;;;;;;;5079245;28;20094;-83
2022/04/04 03:47:31;;;;;;;19.83;13.75;;;;;;;;;;5075817;28;20048;-83
2022/04/04 03:49:59;;;;;;;19.63;15.38;;;;;;;;;;5079235;28;20081;-84
2022/04/04 03:52:27;;;;;;;22.23;15.50;;;;;;;;;;5073555;28;20058;-83
2022/04/04 03:54:53;;;;;;;27.67;13.77;;;;;;;;;;5080492;28;20134;-85
2022/04/04 03:57:22;;;;;;;24.02;14.55;;;;;;;;;;5078936;28;20031;-82
2022/04/04 03:59:48;;;;;;;26.98;14.20;;;;;;;;;;5079512;28;20040;-81
2022/04/04 04:02:14;;;;;;;23.88;18.13;;;;;;;;;;5076565;28;20540;-83
2022/04/04 04:04:40;;;;;;;33.03;15.80;;;;;;;;;;5076648;28;20040;-83
2022/04/04 04:07:10;;;;;;;25.10;16.27;;;;;;;;;;5077134;28;20049;-81
2022/04/04 04:09:37;;;;;;;21.65;13.38;;;;;;;;;;5078529;28;20449;-84
2022/04/04 04:12:03;;;;;;;24.23;16.38;;;;;;;;;;5078195;28;20902;-82
2022/04/04 04:14:30;;;;;;;31.38;16.45;;;;;;;;;;5078921;28;20499;-83
2022/04/04 04:16:56;;;;;;;34.45;18.95;;;;;;;;;;5083922;28;20068;-83
2022/04/04 04:22:07;;;;;;;27.80;15.48;;;;;;;;;;5081475;28;20048;-82
2022/04/04 04:24:33;;;;;;;28.85;19.10;;;;;;;;;;5080290;28;20043;-83
2022/04/04 04:26:59;;;;;;;22.90;15.43;;;;;;;;;;5073422;28;20051;-81
2022/04/04 04:29:28;;;;;;;24.33;14.75;;;;;;;;;;5089588;28;20051;-82
2022/04/04 04:31:54;;;;;;;29.08;18.88;;;;;;;;;;5075173;28;20082;-84
2022/04/04 04:34:20;;;;;;;32.75;17.30;;;;;;;;;;5079424;28;20177;-83
2022/04/04 04:36:46;;;;;;;39.97;22.70;;;;;;;;;;5094973;28;20044;-82
2022/04/04 04:39:15;;;;;;;33.58;21.48;;;;;;;;;;5099369;28;20039;-84
2022/04/04 04:41:41;;;;;;;32.03;21.38;;;;;;;;;;5079507;28;20036;-82
2022/04/04 04:44:07;;;;;;;26.75;14.18;;;;;;;;;;5084877;28;20040;-81
2022/04/04 04:46:33;;;;;;;33.35;19.83;;;;;;;;;;5085284;28;20129;-83
2022/04/04 04:49:00;;;;;;;29.95;14.77;;;;;;;;;;5083253;28;20051;-82
2022/04/04 04:51:27;;;;;;;35.67;22.52;;;;;;;;;;5082414;28;20052;-83
2022/04/04 04:53:53;;;;;;;28.08;18.30;;;;;;;;;;5082579;28;20052;-83
2022/04/04 04:56:19;;;;;;;32.65;20.77;;;;;;;;;;5078944;28;20127;-82
2022/04/04 04:58:45;;;;;;;29.98;17.50;;;;;;;;;;5081608;28;20074;-84
2022/04/04 05:01:17;;;;;;;38.67;24.48;;;;;;;;;;5080125;28;20040;-82
2022/04/04 05:03:43;;;;;;;43.30;24.55;;;;;;;;;;5077464;28;20044;-82
2022/04/04 05:06:15;;;;;;;34.05;19.00;;;;;;;;;;5076497;28;20047;-81
2022/04/04 05:09:00;;;;;;;35.70;21.58;;;;;;;;;;5078121;28;20046;-83
2022/04/04 05:11:27;;;;;;;29.83;16.58;;;;;;;;;;5075623;28;20047;-84
2022/04/04 05:13:53;;;;;;;42.90;25.77;;;;;;;;;;5058702;28;20040;-82
2022/04/04 05:16:19;;;;;;;50.75;24.02;;;;;;;;;;5078248;28;20405;-81
2022/04/04 05:18:45;;;;;;;40.03;23.70;;;;;;;;;;5057500;28;20123;-82
2022/04/04 05:21:12;;;;;;;40.13;25.30;;;;;;;;;;5083001;28;20036;-82
2022/04/04 05:23:38;;;;;;;40.38;23.50;;;;;;;;;;5079969;28;20028;-83
2022/04/04 05:26:05;;;;;;;42.63;23.35;;;;;;;;;;5080939;28;20040;-82
2022/04/04 05:28:38;;;;;;;32.10;20.98;;;;;;;;;;5080694;28;20090;-83
2022/04/04 05:31:04;;;;;;;40.42;22.73;;;;;;;;;;5079143;28;20544;-82
2022/04/04 05:33:31;;;;;;;33.10;21.10;;;;;;;;;;5080323;28;20044;-83
2022/04/04 05:35:57;;;;;;;26.10;16.20;;;;;;;;;;5079801;28;20377;-84
2022/04/04 05:38:23;;;;;;;19.58;14.82;;;;;;;;;;5079647;28;20052;-83
2022/04/04 05:40:49;;;;;;;27.42;17.45;;;;;;;;;;5078568;28;20120;-83
2022/04/04 05:43:15;;;;;;;26.48;17.92;;;;;;;;;;5079628;28;20551;-84
2022/04/04 05:45:41;;;;;;;28.23;16.80;;;;;;;;;;5077678;28;20055;-82
2022/04/04 05:48:07;;;;;;;20.98;14.30;;;;;;;;;;5075598;28;20054;-84
2022/04/04 05:50:34;;;;;;;14.10;9.50;;;;;;;;;;5079308;28;20048;-85
2022/04/04 05:53:00;;;;;;;27.00;13.82;;;;;;;;;;5084671;28;20111;-83
2022/04/04 05:55:26;;;;;;;21.40;12.25;;;;;;;;;;5082762;28;20043;-83
2022/04/04 05:57:52;;;;;;;17.95;13.30;;;;;;;;;;5063306;28;20514;-83
2022/04/04 06:00:18;;;;;;;19.75;10.93;;;;;;;;;;5080301;28;20037;-83
2022/04/04 06:02:45;;;;;;;20.65;12.65;;;;;;;;;;5083962;28;20036;-82
2022/04/04 06:05:12;;;;;;;18.77;11.45;;;;;;;;;;5083503;28;20052;-83
2022/04/04 06:07:38;;;;;;;20.15;12.07;;;;;;;;;;5082295;28;20043;-82
2022/04/04 06:10:05;;;;;;;23.05;14.60;;;;;;;;;;5086840;28;20479;-83
2022/04/04 06:12:32;;;;;;;14.43;8.88;;;;;;;;;;5087799;28;20036;-82
2022/04/04 06:14:58;;;;;;;20.95;12.43;;;;;;;;;;5087508;28;20507;-84
2022/04/04 06:17:24;;;;;;;13.88;10.05;;;;;;;;;;5084265;28;20044;-82
2022/04/04 06:19:50;;;;;;;9.88;6.95;;;;;;;;;;5083917;28;20048;-82
2022/04/04 06:22:16;;;;;;;18.27;8.88;;;;;;;;;;5082930;28;20040;-84
2022/04/04 06:24:42;;;;;;;16.15;9.35;;;;;;;;;;5085393;28;20051;-83
2022/04/04 06:27:09;;;;;;;9.00;6.82;;;;;;;;;;5064200;28;20089;-84
2022/04/04 06:29:35;;;;;;;13.30;5.03;;;;;;;;;;5085317;28;20118;-83
2022/04/04 06:32:01;;;;;;;9.82;5.53;;;;;;;;;;5084046;28;20028;-83
2022/04/04 06:34:27;;;;;;;14.10;8.65;;;;;;;;;;5051066;28;20090;-84
2022/04/04 06:36:53;;;;;;;11.38;6.55;;;;;;;;;;5084770;28;20039;-84
2022/04/04 06:39:20;;;;;;;11.88;7.53;;;;;;;;;;5081521;28;20062;-83
2022/04/04 06:41:46;;;;;;;12.00;5.18;;;;;;;;;;5082612;28;20418;-84
2022/04/04 06:44:12;;;;;;;6.18;5.18;;;;;;;;;;5056564;28;20157;-84
2022/04/04 06:46:39;;;;;;;6.53;4.88;;;;;;;;;;5080309;28;20560;-83
2022/04/04 06:49:05;;;;;;;10.55;4.60;;;;;;;;;;5080869;28;20032;-85
2022/04/04 06:51:32;;;;;;;9.38;4.70;;;;;;;;;;5084025;28;20060;-85
2022/04/04 06:53:59;;;;;;;8.10;4.80;;;;;;;;;;5076640;28;20042;-84
2022/04/04 06:56:25;;;;;;;14.85;6.10;;;;;;;;;;5080646;28;20036;-84
2022/04/04 06:58:55;;;;;;;13.02;7.35;;;;;;;;;;5085923;28;20039;-84
2022/04/04 07:01:21;;;;;;;11.95;6.57;;;;;;;;;;5082175;28;20127;-84
2022/04/04 07:03:47;;;;;;;8.60;4.85;;;;;;;;;;5080043;28;20036;-83
2022/04/04 07:06:13;;;;;;;11.52;5.85;;;;;;;;;;5078490;28;20416;-84
2022/04/04 07:08:39;;;;;;;9.35;6.45;;;;;;;;;;5080677;28;20460;-84
2022/04/04 07:11:08;;;;;;;11.00;6.15;;;;;;;;;;5086289;28;21162;-83
2022/04/04 07:13:34;;;;;;;10.88;6.35;;;;;;;;;;5100301;28;20054;-82
2022/04/04 07:16:00;;;;;;;13.27;6.30;;;;;;;;;;5095758;28;20105;-83
2022/04/04 07:18:26;;;;;;;9.43;5.05;;;;;;;;;;5090790;28;20051;-85
2022/04/04 07:20:52;;;;;;;6.97;4.75;;;;;;;;;;5078596;28;20036;-85
2022/04/04 07:23:18;;;;;;;9.63;7.38;;;;;;;;;;5074227;28;20114;-83
2022/04/04 07:25:44;;;;;;;15.15;6.07;;;;;;;;;;5079762;28;20086;-83
2022/04/04 07:28:10;;;;;;;9.40;6.10;;;;;;;;;;5083528;28;20040;-83
2022/04/04 07:30:36;;;;;;;10.13;6.72;;;;;;;;;;5081715;28;20073;-84
2022/04/04 07:33:04;;;;;;;9.55;6.25;;;;;;;;;;5080976;28;20072;-85
2022/04/04 07:35:30;;;;;;;14.00;8.02;;;;;;;;;;5081506;28;20808;-85
2022/04/04 07:37:57;;;;;;;9.25;6.00;;;;;;;;;;5077481;28;20071;-85
2022/04/04 07:40:23;;;;;;;12.00;8.68;;;;;;;;;;5082434;28;20040;-86
2022/04/04 07:42:50;;;;;;;13.15;9.65;;;;;;;;;;5080635;28;20471;-86
2022/04/04 07:45:18;;;;;;;16.15;11.20;;;;;;;;;;5081285;28;20048;-84
2022/04/04 07:47:44;;;;;;;14.50;8.88;;;;;;;;;;5080274;28;20050;-84
2022/04/04 07:50:11;;;;;;;14.57;10.20;;;;;;;;;;5060058;28;20028;-84
2022/04/04 07:52:37;;;;;;;11.40;7.15;;;;;;;;;;5079313;28;20044;-83
2022/04/04 07:55:04;;;;;;;11.40;7.13;;;;;;;;;;5065233;28;20036;-85
2022/04/04 07:57:30;;;;;;;8.70;7.88;;;;;;;;;;5081570;28;20051;-85
2022/04/04 07:59:56;;;;;;;10.65;7.53;;;;;;;;;;5070591;28;20044;-85
2022/04/04 08:02:22;;;;;;;17.70;10.20;;;;;;;;;;5084878;28;20444;-84
2022/04/04 08:04:49;;;;;;;16.85;11.88;;;;;;;;;;5086517;28;20412;-84
2022/04/04 08:07:18;;;;;;;17.30;9.95;;;;;;;;;;5088137;28;20119;-84
2022/04/04 08:09:44;;;;;;;14.32;10.55;;;;;;;;;;5086785;28;20431;-82
2022/04/04 08:12:10;;;;;;;15.48;9.70;;;;;;;;;;5085821;28;20055;-84
2022/04/04 08:14:37;;;;;;;16.83;9.23;;;;;;;;;;5089048;28;20404;-86
2022/04/04 08:17:04;;;;;;;10.77;7.28;;;;;;;;;;5085962;28;20204;-85
2022/04/04 08:19:30;;;;;;;18.63;10.85;;;;;;;;;;5043206;28;20040;-85
2022/04/04 08:21:59;;;;;;;19.40;10.45;;;;;;;;;;5064764;28;20067;-84
2022/04/04 08:24:25;;;;;;;15.55;10.15;;;;;;;;;;5086663;28;20035;-84
2022/04/04 08:27:03;;;;;;;14.38;8.98;;;;;;;;;;5071914;28;20079;-84
2022/04/04 08:29:29;;;;;;;10.93;7.00;;;;;;;;;;5103073;28;20044;-83
2022/04/04 08:31:55;;;;;;;13.13;7.95;;;;;;;;;;5067552;28;20098;-84
2022/04/04 08:34:21;;;;;;;12.70;8.18;;;;;;;;;;5084638;28;20036;-85
2022/04/04 08:36:47;;;;;;;9.10;6.82;;;;;;;;;;5083684;28;20152;-84
2022/04/04 08:39:14;;;;;;;12.10;6.25;;;;;;;;;;5085120;28;20483;-85
2022/04/04 08:41:40;;;;;;;11.82;8.20;;;;;;;;;;5085738;28;20056;-85
2022/04/04 08:44:06;;;;;;;12.60;7.53;;;;;;;;;;5082505;28;20052;-85
2022/04/04 08:46:33;;;;;;;11.85;7.65;;;;;;;;;;5064580;28;20103;-86
2022/04/04 08:49:00;;;;;;;10.55;7.18;;;;;;;;;;5080064;28;20563;-85
2022/04/04 08:51:26;;;;;;;8.88;6.40;;;;;;;;;;5085005;28;20407;-84
2022/04/04 08:53:53;;;;;;;6.32;4.95;;;;;;;;;;5084502;28;20036;-84
2022/04/04 08:56:21;;;;;;;6.00;4.80;;;;;;;;;;5085429;28;20093;-84
2022/04/04 08:58:48;;;;;;;5.97;3.92;;;;;;;;;;5066627;28;20044;-84
2022/04/04 09:01:21;;;;;;;9.52;5.65;;;;;;;;;;5084035;28;20123;-84
2022/04/04 09:04:33;;;;;;;6.88;4.45;;;;;;;;;;5084608;28;20430;-84
2022/04/04 09:07:03;;;;;;;5.22;4.13;;;;;;;;;;5071703;28;20510;-85
2022/04/04 09:09:52;;;;;;;9.80;5.07;;;;;;;;;;5086110;28;20040;-85
2022/04/04 09:12:20;;;;;;;5.85;3.95;;;;;;;;;;5101768;28;20135;-84
2022/04/04 09:14:57;;;;;;;9.27;5.20;;;;;;;;;;5076781;28;20503;-83
2022/04/04 09:17:32;;;;;;;4.75;3.65;;;;;;;;;;5074779;28;20039;-84
2022/04/04 09:19:58;;;;;;;7.15;4.95;;;;;;;;;;5079816;28;20139;-85
2022/04/04 09:22:25;;;;;;;6.25;3.92;;;;;;;;;;5080746;28;20052;-84
2022/04/04 09:24:52;;;;;;;6.68;4.43;;;;;;;;;;5085556;28;20032;-84
2022/04/04 09:27:22;;;;;;;10.40;4.38;;;;;;;;;;5067308;28;20044;-84
2022/04/04 09:29:49;;;;;;;5.47;3.72;;;;;;;;;;5070336;28;20433;-84
2022/04/04 09:32:15;;;;;;;7.95;4.30;;;;;;;;;;5078306;28;20356;-85
2022/04/04 09:35:01;;;;;;;4.28;3.72;;;;;;;;;;5080363;28;20048;-85
2022/04/04 09:37:29;;;;;;;5.78;3.97;;;;;;;;;;5083884;28;20083;-85
2022/04/04 09:40:21;;;;;;;15.23;5.00;;;;;;;;;;5074265;28;20059;-85
2022/04/04 09:42:53;;;;;;;4.65;3.05;;;;;;;;;;5076997;28;20063;-85
2022/04/04 09:45:30;;;;;;;9.07;4.03;;;;;;;;;;5080062;28;20036;-84
2022/04/04 09:48:07;;;;;;;5.53;3.97;;;;;;;;;;5080219;28;20048;-84
2022/04/04 09:50:35;;;;;;;7.05;4.20;;;;;;;;;;5077143;28;20118;-85
2022/04/04 09:53:02;;;;;;;6.57;4.47;;;;;;;;;;5064578;28;20057;-85
2022/04/04 09:55:32;;;;;;;6.07;3.45;;;;;;;;;;5068716;28;20052;-85
2022/04/04 09:58:00;;;;;;;8.10;3.72;;;;;;;;;;5068401;28;20365;-86
2022/04/04 10:00:26;;;;;;;5.82;2.80;;;;;;;;;;5076276;28;20048;-85
2022/04/04 10:02:55;;;;;;;7.03;3.10;;;;;;;;;;5055724;28;20052;-85
2022/04/04 10:05:22;;;;;;;6.53;3.90;;;;;;;;;;5077019;28;20126;-85
2022/04/04 10:07:50;;;;;;;8.15;3.20;;;;;;;;;;5078875;28;20496;-84
2022/04/04 10:10:16;;;;;;;3.85;3.10;;;;;;;;;;5075797;28;20036;-84
2022/04/04 10:12:43;;;;;;;8.73;4.35;;;;;;;;;;5060269;28;20610;-84
2022/04/04 10:15:10;;;;;;;6.07;3.50;;;;;;;;;;5088873;28;20043;-85
2022/04/04 10:17:36;;;;;;;5.60;3.50;;;;;;;;;;5068365;28;20028;-85
2022/04/04 10:20:02;;;;;;;6.10;3.55;;;;;;;;;;5074148;28;20036;-85
2022/04/04 10:22:29;;;;;;;4.80;3.80;;;;;;;;;;5073838;28;20039;-85
2022/04/04 10:24:57;;;;;;;4.22;3.33;;;;;;;;;;5075243;28;20443;-82
2022/04/04 10:27:24;;;;;;;4.95;3.17;;;;;;;;;;5076019;28;20093;-85
2022/04/04 10:30:00;;;;;;;7.85;3.95;;;;;;;;;;5069352;28;20052;-86
2022/04/04 10:32:28;;;;;;;8.48;4.38;;;;;;;;;;5073537;28;20052;-85
2022/04/04 10:34:55;;;;;;;6.28;3.72;;;;;;;;;;5076745;28;20587;-86
2022/04/04 10:37:25;;;;;;;6.85;4.07;;;;;;;;;;5080963;28;20077;-85
2022/04/04 10:39:52;;;;;;;5.28;3.83;;;;;;;;;;5079890;28;20036;-85
2022/04/04 10:42:27;;;;;;;4.57;3.20;;;;;;;;;;5078058;28;20094;-85
2022/04/04 10:44:58;;;;;;;8.10;4.35;;;;;;;;;;5065468;28;20048;-83
2022/04/04 10:47:26;;;;;;;5.70;3.05;;;;;;;;;;5084877;28;20052;-86
2022/04/04 10:49:52;;;;;;;8.90;3.08;;;;;;;;;;5079274;28;20067;-85
2022/04/04 10:52:22;;;;;;;4.35;2.88;;;;;;;;;;5080652;28;20560;-86
2022/04/04 10:54:48;;;;;;;6.38;2.90;;;;;;;;;;5077812;28;20056;-84
2022/04/04 10:57:18;;;;;;;4.15;2.50;;;;;;;;;;5062233;28;20036;-84
2022/04/04 10:59:48;;;;;;;8.05;3.90;;;;;;;;;;5065088;28;20080;-85
2022/04/04 11:02:18;;;;;;;6.18;3.88;;;;;;;;;;5080518;28;20105;-85
2022/04/04 11:07:41;;;;;;;6.38;3.13;;;;;;;;;;5086709;28;20125;-85
2022/04/04 11:10:11;;;;;;;3.90;2.22;;;;;;;;;;5069139;28;20047;-85
2022/04/04 11:12:54;;;;;;;6.85;3.25;;;;;;;;;;5090766;28;20094;-85
2022/04/04 11:15:42;;;;;;;3.22;2.80;;;;;;;;;;5069623;28;20050;-84
2022/04/04 11:18:09;;;;;;;2.97;2.50;;;;;;;;;;5077655;28;20028;-85
2022/04/04 11:20:36;;;;;;;4.68;2.50;;;;;;;;;;5063191;28;20462;-85
2022/04/04 11:23:11;;;;;;;2.42;2.22;;;;;;;;;;5081216;28;20127;-84
2022/04/04 11:25:48;;;;;;;5.47;2.47;;;;;;;;;;5083053;28;20507;-85
2022/04/04 11:28:15;;;;;;;3.95;1.88;;;;;;;;;;5080159;28;20059;-84
2022/04/04 11:30:41;;;;;;;1.55;1.45;;;;;;;;;;5082849;28;20722;-85
2022/04/04 11:33:18;;;;;;;2.42;2.10;;;;;;;;;;5085667;28;20036;-84
2022/04/04 11:35:48;;;;;;;6.20;2.25;;;;;;;;;;5084860;28;20082;-86
2022/04/04 11:38:18;;;;;;;3.15;1.80;;;;;;;;;;5087162;28;20442;-85
2022/04/04 11:40:49;;;;;;;3.78;2.42;;;;;;;;;;5066124;28;20044;-86
2022/04/04 11:43:19;;;;;;;4.03;2.10;;;;;;;;;;5069585;28;20455;-86
2022/04/04 11:45:46;;;;;;;5.20;2.35;;;;;;;;;;5090386;28;20039;-86
2022/04/04 11:48:24;;;;;;;5.30;2.08;;;;;;;;;;5084659;28;20128;-86
2022/04/04 11:50:51;;;;;;;4.25;1.65;;;;;;;;;;5087376;28;20380;-85
2022/04/04 11:53:25;;;;;;;4.88;2.03;;;;;;;;;;5071508;28;20165;-85
2022/04/04 11:55:51;;;;;;;4.82;2.25;;;;;;;;;;5088796;28;20049;-86
2022/04/04 11:58:20;;;;;;;2.58;2.05;;;;;;;;;;5089416;28;20036;-85
2022/04/04 12:00:54;;;;;;;1.92;1.60;;;;;;;;;;5082399;28;20071;-85
2022/04/04 12:03:27;;;;;;;2.67;1.70;;;;;;;;;;5061517;28;20169;-85
2022/04/04 12:06:06;;;;;;;2.83;1.40;;;;;;;;;;5081045;28;20055;-85
2022/04/04 12:08:35;;;;;;;3.05;1.92;;;;;;;;;;5087523;28;20079;-85
2022/04/04 12:11:07;;;;;;;1.70;1.60;;;;;;;;;;5067343;28;20101;-86
2022/04/04 12:13:33;;;;;;;3.20;1.77;;;;;;;;;;5059833;28;20044;-86
2022/04/04 12:16:02;;;;;;;2.47;2.10;;;;;;;;;;5082788;28;20040;-87
2022/04/04 12:18:48;;;;;;;3.95;2.30;;;;;;;;;;5089439;28;20079;-85
2022/04/04 12:21:14;;;;;;;4.95;1.90;;;;;;;;;;5102615;28;20453;-87
2022/04/04 12:26:27;;;;;;;4.85;2.17;;;;;;;;;;5069814;28;20087;-87
2022/04/04 12:29:09;;;;;;;3.00;2.20;;;;;;;;;;5073339;28;20047;-86
2022/04/04 12:31:35;;;;;;;2.40;1.92;;;;;;;;;;5053864;28;20048;-88
2022/04/04 12:34:03;;;;;;;5.28;1.58;;;;;;;;;;5064033;28;20380;-87
2022/04/04 12:38:58;;;;;;;4.20;2.50;;;;;;;;;;5107762;22;20081;-85
2022/04/04 12:41:27;;;;;;;2.35;2.15;;;;;;;;;;5069896;28;20138;-86
2022/04/04 12:44:04;;;;;;;2.97;1.65;;;;;;;;;;5089276;28;20040;-86
2022/04/04 12:46:34;;;;;;;2.72;1.98;;;;;;;;;;5072197;28;20402;-86
2022/04/04 12:49:09;;;;;;;3.03;2.20;;;;;;;;;;5049122;28;20039;-85
2022/04/04 12:51:35;;;;;;;7.78;2.60;;;;;;;;;;5080291;28;20040;-86
2022/04/04 12:54:02;;;;;;;4.90;2.40;;;;;;;;;;5076513;28;20067;-86
2022/04/04 12:56:28;;;;;;;2.40;2.20;;;;;;;;;;5066887;28;20051;-87
2022/04/04 12:59:08;;;;;;;3.33;2.00;;;;;;;;;;5050888;28;20036;-88
2022/04/04 13:01:35;;;;;;;6.53;2.97;;;;;;;;;;5087421;28;20369;-88
2022/04/04 13:04:02;;;;;;;3.28;2.45;;;;;;;;;;5068306;28;20040;-87
2022/04/04 13:06:29;;;;;;;5.55;3.40;;;;;;;;;;5033123;28;20387;-88
2022/04/04 13:08:59;;;;;;;3.10;2.80;;;;;;;;;;5068659;28;20051;-87
2022/04/04 13:11:29;;;;;;;5.82;2.95;;;;;;;;;;5088489;28;20044;-87
2022/04/04 13:14:16;;;;;;;6.72;4.40;;;;;;;;;;5092397;28;20044;-88
2022/04/04 13:16:43;;;;;;;6.88;3.67;;;;;;;;;;5057125;28;20075;-88
2022/04/04 13:19:10;;;;;;;11.45;3.58;;;;;;;;;;5086651;28;20046;-88
2022/04/04 13:21:41;;;;;;;5.32;3.63;;;;;;;;;;5052948;28;20118;-87
2022/04/04 13:24:10;;;;;;;7.43;4.68;;;;;;;;;;5092520;28;20063;-87
2022/04/04 13:26:39;;;;;;;6.60;4.95;;;;;;;;;;5073059;28;20039;-87
2022/04/04 13:29:16;;;;;;;10.52;5.63;;;;;;;;;;5031055;28;20048;-89
2022/04/04 13:31:43;;;;;;;5.88;4.18;;;;;;;;;;5048363;28;20075;-87
2022/04/04 13:34:10;;;;;;;8.80;5.35;;;;;;;;;;5074741;28;20120;-87
2022/04/04 13:36:37;;;;;;;8.70;4.57;;;;;;;;;;5066484;28;20067;-88
2022/04/04 13:39:04;;;;;;;6.57;3.75;;;;;;;;;;5048875;28;20054;-87
2022/04/04 13:41:53;;;;;;;5.53;3.42;;;;;;;;;;5037256;28;20047;-87
2022/04/04 13:44:27;;;;;;;8.95;4.85;;;;;;;;;;5070466;28;20051;-90
2022/04/04 13:46:54;;;;;;;8.60;4.45;;;;;;;;;;5033806;28;20055;-89
2022/04/04 13:49:20;;;;;;;10.85;4.03;;;;;;;;;;5026104;28;20108;-88
2022/04/04 13:51:56;;;;;;;14.88;5.30;;;;;;;;;;5096889;28;20094;-88
2022/04/04 13:54:28;;;;;;;14.07;5.88;;;;;;;;;;5049837;28;20028;-89
2022/04/04 13:57:11;;;;;;;14.57;6.20;;;;;;;;;;5097967;28;20039;-90
2022/04/04 13:59:45;;;;;;;16.02;7.32;;;;;;;;;;5080358;28;20048;-88
2022/04/04 14:02:18;;;;;;;19.88;6.70;;;;;;;;;;5074158;28;20036;-89
2022/04/04 14:07:52;;;;;;;34.53;6.67;;;;;;;;;;5079025;28;20556;-91
2022/04/04 14:16:46;;;;;;;25.88;6.20;;;;;;;;;;5115945;28;20039;-89
2022/04/04 14:19:21;;;;;;;25.00;6.18;;;;;;;;;;5083511;28;20047;-90
2022/04/04 14:22:08;;;;;;;37.00;7.10;;;;;;;;;;5109540;28;20059;-90
2022/04/04 14:24:57;;;;;;;31.88;6.90;;;;;;;;;;5059430;28;20053;-89
2022/04/04 14:27:32;;;;;;;38.95;9.13;;;;;;;;;;5052886;28;20064;-89
2022/04/04 14:29:59;;;;;;;40.50;8.48;;;;;;;;;;5053687;28;20090;-91
2022/04/04 14:32:34;;;;;;;38.13;7.30;;;;;;;;;;5085756;28;20058;-91
2022/04/04 14:35:16;;;;;;;33.15;6.97;;;;;;;;;;5085990;28;20032;-89
2022/04/04 14:37:57;;;;;;;22.48;5.13;;;;;;;;;;5052343;28;20528;-89
2022/04/04 14:40:23;;;;;;;35.00;6.70;;;;;;;;;;5047826;28;20103;-89
2022/04/04 14:43:04;;;;;;;28.02;6.65;;;;;;;;;;5049999;28;20344;-90
2022/04/04 14:45:49;;;;;;;38.08;7.10;;;;;;;;;;5072260;28;20044;-90
2022/04/04 15:02:35;;;;;;;29.90;5.55;;;;;;;;;;5065372;28;20075;-89
2022/04/04 15:05:24;;;;;;;30.95;5.43;;;;;;;;;;5072411;28;20059;-91
2022/04/04 15:08:07;;;;;;;28.25;5.65;;;;;;;;;;5074091;28;20438;-90
2022/04/04 15:10:33;;;;;;;33.38;7.18;;;;;;;;;;5049101;28;20048;-88
2022/04/04 15:13:11;;;;;;;30.02;5.80;;;;;;;;;;5031591;28;20068;-88
2022/04/04 15:15:37;;;;;;;36.97;5.30;;;;;;;;;;5065788;28;20090;-88
2022/04/04 15:18:21;;;;;;;34.85;5.40;;;;;;;;;;5029588;28;20048;-90
2022/04/04 15:20:56;;;;;;;24.83;5.18;;;;;;;;;;5034395;28;20059;-92